createdAt,value
2022-08-30T00:01:31.709Z,49.73
2022-08-30T00:03:59.652Z,49.51
2022-08-30T00:06:30.442Z,49.90
2022-08-30T00:08:57.876Z,49.83
2022-08-30T00:11:27.433Z,49.84
2022-08-30T00:13:56.709Z,49.70
2022-08-30T00:16:27.072Z,49.79
2022-08-30T00:18:55.140Z,49.84
2022-08-30T00:21:22.914Z,49.83
2022-08-30T00:23:50.174Z,50.15
2022-08-30T00:26:17.026Z,50.22
2022-08-30T00:28:43.991Z,50.44
2022-08-30T00:31:11.656Z,50.42
2022-08-30T00:33:42.472Z,50.29
2022-08-30T00:36:09.424Z,50.34
2022-08-30T00:38:36.388Z,50.40
2022-08-30T00:41:03.436Z,50.32
2022-08-30T00:43:31.918Z,50.07
2022-08-30T00:45:59.961Z,50.04
2022-08-30T00:48:27.039Z,50.38
2022-08-30T00:51:02.629Z,50.67
2022-08-30T00:53:33.003Z,50.55
2022-08-30T00:56:02.247Z,50.87
2022-08-30T00:58:34.204Z,50.93
2022-08-30T01:01:05.119Z,51.20
2022-08-30T01:03:34.086Z,51.18
2022-08-30T01:06:01.648Z,51.18
2022-08-30T01:08:28.964Z,50.88
2022-08-30T01:10:57.291Z,50.86
2022-08-30T01:13:28.322Z,50.81
2022-08-30T01:15:55.352Z,50.82
2022-08-30T01:18:28.206Z,50.45
2022-08-30T01:21:19.307Z,50.01
2022-08-30T01:23:47.736Z,50.22
2022-08-30T01:26:15.979Z,50.26
2022-08-30T01:28:46.287Z,50.49
2022-08-30T01:31:13.162Z,50.68
2022-08-30T01:33:40.269Z,50.78
2022-08-30T01:36:12.278Z,51.07
2022-08-30T01:38:47.745Z,50.55
2022-08-30T01:41:34.417Z,50.66
2022-08-30T01:44:05.880Z,50.67
2022-08-30T01:46:39.605Z,51.06
2022-08-30T01:49:09.811Z,50.63
2022-08-30T01:51:37.447Z,50.94
2022-08-30T01:54:04.327Z,50.81
2022-08-30T01:56:32.665Z,50.64
2022-08-30T01:59:02.876Z,50.71
2022-08-30T02:01:41.675Z,50.30
2022-08-30T02:04:11.851Z,50.20
2022-08-30T02:06:38.944Z,50.44
2022-08-30T02:09:05.994Z,50.29
2022-08-30T02:11:33.251Z,49.96
2022-08-30T02:14:00.024Z,49.80
2022-08-30T02:16:26.941Z,49.91
2022-08-30T02:18:56.123Z,49.75
2022-08-30T02:21:24.037Z,49.63
2022-08-30T02:23:54.446Z,49.72
2022-08-30T02:26:22.396Z,49.90
2022-08-30T02:28:50.405Z,49.68
2022-08-30T02:31:20.926Z,49.87
2022-08-30T02:33:52.734Z,49.70
2022-08-30T02:36:21.247Z,49.75
2022-08-30T02:38:49.751Z,49.56
2022-08-30T02:41:17.330Z,49.59
2022-08-30T02:43:44.629Z,49.65
2022-08-30T02:46:11.541Z,50.21
2022-08-30T02:48:38.544Z,49.83
2022-08-30T02:51:11.307Z,50.46
2022-08-30T02:53:39.443Z,51.31
2022-08-30T02:56:06.654Z,51.57
2022-08-30T02:58:33.515Z,52.07
2022-08-30T03:01:00.339Z,52.76
2022-08-30T03:03:27.340Z,53.67
2022-08-30T03:05:58.708Z,53.73
2022-08-30T03:08:25.568Z,53.77
2022-08-30T03:10:52.509Z,53.84
2022-08-30T03:13:21.604Z,53.72
2022-08-30T03:15:50.356Z,53.99
2022-08-30T03:18:20.881Z,54.07
2022-08-30T03:20:54.570Z,54.44
2022-08-30T03:23:24.396Z,54.46
2022-08-30T03:25:52.526Z,54.63
2022-08-30T03:28:19.418Z,54.53
2022-08-30T03:30:47.306Z,54.49
2022-08-30T03:33:14.682Z,54.47
2022-08-30T03:35:41.820Z,54.39
2022-08-30T03:38:08.662Z,54.44
2022-08-30T03:40:38.753Z,54.69
2022-08-30T03:43:05.751Z,54.37
2022-08-30T03:45:33.368Z,54.51
2022-08-30T03:48:02.352Z,54.50
2022-08-30T03:50:30.491Z,54.35
2022-08-30T03:52:57.920Z,54.25
2022-08-30T03:55:24.753Z,54.83
2022-08-30T03:57:51.518Z,54.95
2022-08-30T04:00:19.271Z,55.41
2022-08-30T04:02:48.751Z,55.65
2022-08-30T04:05:15.786Z,55.60
2022-08-30T04:07:45.994Z,56.20
2022-08-30T04:10:16.645Z,56.36
2022-08-30T04:12:48.893Z,56.68
2022-08-30T04:15:17.768Z,57.29
2022-08-30T04:17:45.031Z,57.20
2022-08-30T04:20:12.388Z,57.36
2022-08-30T04:22:46.770Z,57.41
2022-08-30T04:25:15.510Z,57.90
2022-08-30T04:27:43.944Z,58.03
2022-08-30T04:30:12.444Z,57.99
2022-08-30T04:32:40.260Z,57.99
2022-08-30T04:35:07.613Z,57.81
2022-08-30T04:37:35.540Z,58.17
2022-08-30T04:40:02.677Z,57.92
2022-08-30T04:42:34.927Z,57.83
2022-08-30T04:45:04.714Z,58.18
2022-08-30T04:47:33.012Z,58.43
2022-08-30T04:49:59.908Z,58.32
2022-08-30T04:52:28.921Z,58.46
2022-08-30T04:54:57.157Z,58.15
2022-08-30T04:57:24.945Z,57.78
2022-08-30T04:59:52.422Z,57.25
2022-08-30T05:02:19.632Z,56.62
2022-08-30T05:05:09.698Z,56.31
2022-08-30T05:07:37.517Z,55.83
2022-08-30T05:10:09.186Z,55.49
2022-08-30T05:12:38.708Z,55.65
2022-08-30T05:15:05.923Z,55.27
2022-08-30T05:17:32.801Z,55.58
2022-08-30T05:20:02.161Z,55.27
2022-08-30T05:22:28.921Z,55.53
2022-08-30T05:24:57.309Z,55.44
2022-08-30T05:27:24.991Z,55.13
2022-08-30T05:29:51.815Z,54.94
2022-08-30T05:32:19.065Z,54.99
2022-08-30T05:34:47.215Z,54.65
2022-08-30T05:37:20.492Z,54.13
2022-08-30T05:39:50.912Z,53.93
2022-08-30T05:42:18.597Z,53.56
2022-08-30T05:44:45.391Z,53.12
2022-08-30T05:47:12.312Z,52.34
2022-08-30T05:49:40.134Z,52.19
2022-08-30T05:52:07.252Z,50.32
2022-08-30T05:54:37.028Z,48.09
2022-08-30T05:57:06.768Z,47.63
2022-08-30T05:59:34.223Z,47.11
2022-08-30T06:02:02.753Z,46.81
2022-08-30T06:04:36.764Z,44.71
2022-08-30T06:07:07.339Z,44.06
2022-08-30T06:09:41.947Z,43.47
2022-08-30T06:12:11.120Z,43.52
2022-08-30T06:14:39.399Z,41.80
2022-08-30T06:17:07.038Z,42.62
2022-08-30T06:19:37.657Z,43.30
2022-08-30T06:22:04.973Z,43.52
2022-08-30T06:24:55.878Z,43.03
2022-08-30T06:27:20.497Z,42.96
2022-08-30T06:29:51.696Z,43.82
2022-08-30T06:32:18.668Z,44.65
2022-08-30T06:34:45.537Z,45.28
2022-08-30T06:37:12.798Z,46.03
2022-08-30T06:39:59.791Z,46.51
2022-08-30T06:42:31.814Z,46.49
2022-08-30T06:45:00.719Z,45.99
2022-08-30T06:47:28.798Z,43.93
2022-08-30T06:49:57.431Z,40.78
2022-08-30T06:52:27.501Z,37.11
2022-08-30T06:54:58.975Z,36.55
2022-08-30T06:57:28.589Z,37.29
2022-08-30T06:59:58.422Z,36.45
2022-08-30T07:02:29.885Z,35.35
2022-08-30T07:04:59.258Z,33.42
2022-08-30T07:07:26.103Z,31.90
2022-08-30T07:09:54.795Z,31.08
2022-08-30T07:12:22.608Z,30.38
2022-08-30T07:14:55.010Z,31.38
2022-08-30T07:17:41.866Z,31.97
2022-08-30T07:20:10.339Z,31.53
2022-08-30T07:22:37.230Z,31.84
2022-08-30T07:25:12.951Z,32.05
2022-08-30T07:27:44.133Z,31.66
2022-08-30T07:30:15.788Z,31.62
2022-08-30T07:32:45.990Z,29.94
2022-08-30T07:35:13.207Z,28.32
2022-08-30T07:37:41.886Z,26.73
2022-08-30T07:40:09.728Z,26.31
2022-08-30T07:42:42.941Z,25.33
2022-08-30T07:45:14.583Z,25.88
2022-08-30T07:47:41.776Z,24.69
2022-08-30T07:50:10.754Z,23.75
2022-08-30T07:55:11.123Z,22.43
2022-08-30T07:57:38.585Z,23.93
2022-08-30T08:00:08.322Z,24.99
2022-08-30T08:02:47.265Z,26.00
2022-08-30T08:05:20.128Z,26.53
2022-08-30T08:07:50.782Z,27.50
2022-08-30T08:10:19.028Z,27.67
2022-08-30T08:12:48.300Z,27.16
2022-08-30T08:15:15.926Z,28.22
2022-08-30T08:17:50.741Z,26.52
2022-08-30T08:20:17.993Z,25.18
2022-08-30T08:22:46.392Z,24.39
2022-08-30T08:25:15.023Z,23.49
2022-08-30T08:27:44.923Z,22.84
2022-08-30T08:30:14.662Z,21.64
2022-08-30T08:32:47.326Z,21.89
2022-08-30T08:35:15.491Z,21.88
2022-08-30T08:37:42.524Z,22.60
2022-08-30T08:40:16.602Z,21.34
2022-08-30T08:43:03.793Z,22.31
2022-08-30T08:45:59.490Z,23.21
2022-08-30T08:48:51.967Z,23.64
2022-08-30T08:51:59.041Z,22.66
2022-08-30T08:54:51.637Z,21.20
2022-08-30T08:57:24.535Z,21.55
2022-08-30T08:59:54.336Z,21.41
2022-08-30T09:02:26.215Z,20.81
2022-08-30T09:05:01.452Z,19.89
2022-08-30T09:07:32.044Z,19.95
2022-08-30T09:10:00.725Z,20.38
2022-08-30T09:12:27.666Z,21.08
2022-08-30T09:14:59.012Z,20.03
2022-08-30T09:17:26.453Z,20.16
2022-08-30T09:19:53.628Z,19.59
2022-08-30T09:22:27.822Z,20.44
2022-08-30T09:25:05.912Z,21.17
2022-08-30T09:27:36.465Z,23.35
2022-08-30T09:30:14.342Z,24.83
2022-08-30T09:32:52.752Z,25.45
2022-08-30T09:35:44.177Z,26.68
2022-08-30T09:38:22.816Z,27.17
2022-08-30T09:40:55.296Z,27.16
2022-08-30T09:43:29.805Z,26.40
2022-08-30T09:46:02.639Z,26.12
2022-08-30T09:48:35.287Z,24.20
2022-08-30T09:51:08.382Z,23.65
2022-08-30T09:53:38.259Z,23.67
2022-08-30T09:56:11.494Z,24.48
2022-08-30T09:59:13.559Z,24.26
2022-08-30T10:01:45.747Z,24.98
2022-08-30T10:04:31.433Z,23.84
2022-08-30T10:07:01.200Z,23.85
2022-08-30T10:10:13.894Z,23.57
2022-08-30T10:13:12.401Z,24.82
2022-08-30T10:15:47.817Z,24.57
2022-08-30T10:18:27.182Z,24.13
2022-08-30T10:21:19.432Z,24.06
2022-08-30T10:24:03.505Z,23.91
2022-08-30T10:26:33.782Z,23.44
2022-08-30T10:29:06.652Z,23.47
2022-08-30T10:31:40.422Z,23.91
2022-08-30T10:34:40.879Z,24.31
2022-08-30T10:37:12.142Z,24.38
2022-08-30T10:40:20.022Z,24.89
2022-08-30T10:42:49.470Z,24.83
2022-08-30T10:45:18.778Z,25.57
2022-08-30T10:48:03.605Z,27.00
2022-08-30T10:50:41.009Z,27.10
2022-08-30T10:53:42.451Z,27.13
2022-08-30T10:56:15.614Z,26.39
2022-08-30T10:58:42.962Z,26.47
2022-08-30T11:01:36.203Z,26.11
2022-08-30T11:04:17.815Z,25.83
2022-08-30T11:06:54.018Z,26.06
2022-08-30T11:09:28.081Z,25.54
2022-08-30T11:12:00.977Z,25.10
2022-08-30T11:14:29.265Z,25.13
2022-08-30T11:16:59.804Z,23.69
2022-08-30T11:19:32.286Z,23.31
2022-08-30T11:22:15.275Z,22.66
2022-08-30T11:24:59.234Z,22.90
2022-08-30T11:27:58.905Z,23.73
2022-08-30T11:30:28.800Z,23.41
2022-08-30T11:32:59.485Z,23.94
2022-08-30T11:35:56.706Z,24.96
2022-08-30T11:38:26.563Z,24.32
2022-08-30T11:40:56.651Z,24.64
2022-08-30T11:43:36.535Z,24.45
2022-08-30T11:46:15.897Z,24.28
2022-08-30T11:48:55.536Z,24.88
2022-08-30T11:52:26.934Z,24.76
2022-08-30T11:55:15.913Z,25.20
2022-08-30T11:58:01.519Z,25.44
2022-08-30T12:00:31.459Z,26.20
2022-08-30T12:03:05.274Z,26.25
2022-08-30T12:05:38.694Z,26.04
2022-08-30T12:08:08.843Z,25.48
2022-08-30T12:10:48.570Z,25.52
2022-08-30T12:13:34.608Z,25.24
2022-08-30T12:16:05.221Z,25.89
2022-08-30T12:18:46.139Z,25.87
2022-08-30T12:21:22.061Z,26.46
2022-08-30T12:24:19.517Z,25.82
2022-08-30T12:26:48.384Z,25.61
2022-08-30T12:29:24.442Z,26.35
2022-08-30T12:31:58.641Z,25.71
2022-08-30T12:34:28.324Z,25.90
2022-08-30T12:37:05.619Z,25.25
2022-08-30T12:39:41.840Z,25.48
2022-08-30T12:42:17.791Z,26.98
2022-08-30T12:44:45.879Z,26.53
2022-08-30T12:47:13.425Z,26.21
2022-08-30T12:49:42.658Z,26.30
2022-08-30T12:52:25.905Z,25.86
2022-08-30T12:54:54.204Z,26.24
2022-08-30T12:58:00.832Z,25.95
2022-08-30T13:00:34.066Z,25.48
2022-08-30T13:03:15.989Z,26.07
2022-08-30T13:05:47.918Z,25.94
2022-08-30T13:08:18.566Z,26.39
2022-08-30T13:10:56.656Z,25.84
2022-08-30T13:13:44.632Z,26.33
2022-08-30T13:16:24.977Z,26.07
2022-08-30T13:19:31.123Z,26.81
2022-08-30T13:21:58.980Z,26.39
2022-08-30T13:24:28.541Z,26.68
2022-08-30T13:26:58.712Z,27.08
2022-08-30T13:29:27.882Z,27.23
2022-08-30T13:31:55.403Z,27.30
2022-08-30T13:34:24.964Z,27.50
2022-08-30T13:36:57.510Z,27.88
2022-08-30T13:39:24.534Z,27.52
2022-08-30T13:41:51.782Z,27.57
2022-08-30T13:44:18.890Z,27.25
2022-08-30T13:46:53.838Z,27.24
2022-08-30T13:49:43.441Z,26.93
2022-08-30T13:52:20.845Z,27.34
2022-08-30T13:54:53.211Z,27.41
2022-08-30T14:00:15.232Z,28.60
2022-08-30T14:02:47.789Z,28.43
2022-08-30T14:11:11.765Z,29.05
2022-08-30T14:14:14.783Z,28.08
2022-08-30T14:16:30.700Z,28.48
2022-08-30T14:18:58.699Z,28.35
2022-08-30T14:21:28.374Z,29.20
2022-08-30T14:23:56.854Z,28.96
2022-08-30T14:26:38.361Z,29.28
2022-08-30T14:29:11.014Z,29.54
2022-08-30T14:31:40.028Z,28.99
2022-08-30T14:34:08.318Z,29.01
2022-08-30T14:36:41.184Z,29.20
2022-08-30T14:39:11.887Z,29.12
2022-08-30T14:41:47.620Z,29.25
2022-08-30T14:44:17.835Z,29.71
2022-08-30T14:46:44.743Z,29.92
2022-08-30T14:49:15.532Z,29.80
2022-08-30T14:51:47.490Z,30.03
2022-08-30T14:54:17.911Z,30.36
2022-08-30T14:56:44.813Z,29.73
2022-08-30T14:59:14.743Z,29.37
2022-08-30T15:01:45.674Z,29.84
2022-08-30T15:04:13.835Z,29.87
2022-08-30T15:06:42.344Z,30.26
2022-08-30T15:09:12.837Z,29.67
2022-08-30T15:11:46.906Z,30.07
2022-08-30T15:14:16.279Z,29.70
2022-08-30T15:16:43.649Z,30.42
2022-08-30T15:19:14.099Z,30.32
2022-08-30T15:21:46.931Z,31.19
2022-08-30T15:24:29.432Z,31.56
2022-08-30T15:26:59.714Z,31.35
2022-08-30T15:29:26.943Z,31.39
2022-08-30T15:31:54.219Z,30.71
2022-08-30T15:34:26.177Z,31.26
2022-08-30T15:36:55.380Z,30.52
2022-08-30T15:39:29.653Z,30.51
2022-08-30T15:42:00.649Z,30.92
2022-08-30T15:44:34.321Z,31.44
2022-08-30T15:47:01.776Z,32.19
2022-08-30T15:49:28.982Z,32.03
2022-08-30T15:52:04.144Z,32.38
2022-08-30T15:54:32.135Z,32.39
2022-08-30T15:56:59.648Z,32.88
2022-08-30T15:59:29.465Z,33.13
2022-08-30T16:01:57.322Z,33.20
2022-08-30T16:04:24.444Z,33.33
2022-08-30T16:06:53.579Z,33.11
2022-08-30T16:09:22.441Z,33.45
2022-08-30T16:11:51.946Z,33.49
2022-08-30T16:14:21.403Z,33.50
2022-08-30T16:16:50.858Z,33.97
2022-08-30T16:19:17.672Z,33.67
2022-08-30T16:21:44.901Z,33.87
2022-08-30T16:24:14.950Z,33.57
2022-08-30T16:26:42.952Z,33.51
2022-08-30T16:29:11.703Z,33.34
2022-08-30T16:31:38.510Z,33.05
2022-08-30T16:34:06.173Z,33.45
2022-08-30T16:36:33.455Z,33.26
2022-08-30T16:39:00.827Z,33.54
2022-08-30T16:41:28.040Z,33.80
2022-08-30T16:43:56.009Z,33.74
2022-08-30T16:46:28.275Z,33.76
2022-08-30T16:49:01.352Z,34.46
2022-08-30T16:51:30.324Z,34.88
2022-08-30T16:54:01.309Z,34.79
2022-08-30T16:56:33.099Z,35.03
2022-08-30T16:59:02.489Z,34.91
2022-08-30T17:01:45.113Z,34.84
2022-08-30T17:04:13.049Z,35.45
2022-08-30T17:06:42.734Z,35.73
2022-08-30T17:09:09.766Z,35.41
2022-08-30T17:11:37.905Z,35.54
2022-08-30T17:14:10.294Z,36.00
2022-08-30T17:16:38.261Z,36.04
2022-08-30T17:19:07.496Z,36.21
2022-08-30T17:21:35.034Z,36.26
2022-08-30T17:24:03.226Z,36.33
2022-08-30T17:26:36.434Z,36.54
2022-08-30T17:29:04.436Z,36.79
2022-08-30T17:31:31.695Z,36.80
2022-08-30T17:34:03.364Z,36.87
2022-08-30T17:36:36.190Z,36.91
2022-08-30T17:39:11.293Z,37.29
2022-08-30T17:41:45.370Z,37.39
2022-08-30T17:44:19.867Z,37.42
2022-08-30T17:46:47.139Z,37.47
2022-08-30T17:49:14.059Z,37.62
2022-08-30T17:51:43.515Z,37.70
2022-08-30T17:54:14.420Z,38.26
2022-08-30T17:56:42.169Z,38.03
2022-08-30T17:59:25.323Z,38.33
2022-08-30T18:01:53.883Z,38.42
2022-08-30T18:04:24.939Z,38.84
2022-08-30T18:06:52.349Z,38.58
2022-08-30T18:09:19.147Z,39.11
2022-08-30T18:11:48.301Z,39.26
2022-08-30T18:14:16.176Z,39.47
2022-08-30T18:16:49.958Z,39.59
2022-08-30T18:19:21.387Z,39.45
2022-08-30T18:21:49.346Z,40.04
2022-08-30T18:24:18.667Z,40.15
2022-08-30T18:26:48.006Z,40.07
2022-08-30T18:29:29.539Z,40.05
2022-08-30T18:32:01.491Z,40.11
2022-08-30T18:34:28.860Z,39.94
2022-08-30T18:36:56.028Z,39.94
2022-08-30T18:39:23.070Z,40.14
2022-08-30T18:41:54.475Z,40.45
2022-08-30T18:44:33.349Z,40.72
2022-08-30T18:47:03.796Z,40.68
2022-08-30T18:49:34.876Z,40.70
2022-08-30T18:52:06.145Z,40.94
2022-08-30T18:54:37.395Z,40.82
2022-08-30T18:57:05.012Z,40.83
2022-08-30T18:59:36.553Z,41.29
2022-08-30T19:02:08.069Z,41.32
2022-08-30T19:04:36.428Z,41.20
2022-08-30T19:07:07.278Z,41.50
2022-08-30T19:12:09.488Z,41.61
2022-08-30T19:14:37.578Z,41.76
2022-08-30T19:17:07.024Z,41.67
2022-08-30T19:19:46.304Z,41.97
2022-08-30T19:22:18.984Z,42.16
2022-08-30T19:24:46.825Z,42.29
2022-08-30T19:27:14.114Z,42.07
2022-08-30T19:29:44.713Z,42.66
2022-08-30T19:32:13.199Z,42.68
2022-08-30T19:34:40.117Z,42.43
2022-08-30T19:37:07.103Z,42.96
2022-08-30T19:39:36.848Z,42.75
2022-08-30T19:42:05.639Z,42.79
2022-08-30T19:44:36.040Z,42.86
2022-08-30T19:47:08.711Z,43.32
2022-08-30T19:49:36.797Z,43.00
2022-08-30T19:52:03.970Z,43.42
2022-08-30T19:54:30.918Z,43.74
2022-08-30T19:56:57.670Z,43.48
2022-08-30T19:59:27.406Z,43.66
2022-08-30T20:02:04.409Z,43.87
2022-08-30T20:04:34.276Z,44.24
2022-08-30T20:07:01.242Z,44.24
2022-08-30T20:09:30.214Z,44.17
2022-08-30T20:11:57.271Z,44.11
2022-08-30T20:14:26.847Z,44.48
2022-08-30T20:16:53.761Z,44.11
2022-08-30T20:19:48.242Z,44.73
2022-08-30T20:22:19.536Z,44.74
2022-08-30T20:24:50.424Z,44.73
2022-08-30T20:27:19.074Z,44.79
2022-08-30T20:29:46.541Z,44.94
2022-08-30T20:32:15.744Z,45.09
2022-08-30T20:34:43.403Z,45.16
2022-08-30T20:37:11.071Z,45.55
2022-08-30T20:39:39.073Z,45.06
2022-08-30T20:42:07.798Z,45.58
2022-08-30T20:44:34.695Z,45.79
2022-08-30T20:47:01.689Z,45.48
2022-08-30T20:49:29.222Z,45.62
2022-08-30T20:51:56.171Z,45.82
2022-08-30T20:54:33.148Z,45.66
2022-08-30T20:57:00.174Z,45.69
2022-08-30T20:59:27.838Z,45.90
2022-08-30T21:01:58.979Z,45.71
2022-08-30T21:04:26.643Z,46.27
2022-08-30T21:06:53.425Z,46.07
2022-08-30T21:09:26.371Z,46.06
2022-08-30T21:11:53.796Z,45.88
2022-08-30T21:14:21.844Z,46.12
2022-08-30T21:16:49.805Z,46.00
2022-08-30T21:19:17.109Z,45.96
2022-08-30T21:21:49.944Z,46.23
2022-08-30T21:24:16.828Z,45.77
2022-08-30T21:26:43.793Z,46.26
2022-08-30T21:29:12.066Z,46.24
2022-08-30T21:31:38.968Z,45.96
2022-08-30T21:34:06.646Z,45.64
2022-08-30T21:36:47.191Z,45.84
2022-08-30T21:39:22.119Z,45.69
2022-08-30T21:41:51.892Z,45.29
2022-08-30T21:44:22.849Z,45.62
2022-08-30T21:46:54.574Z,45.80
2022-08-30T21:49:23.457Z,45.83
2022-08-30T21:51:52.422Z,45.54
2022-08-30T21:54:19.613Z,45.42
2022-08-30T21:56:50.412Z,45.63
2022-08-30T21:59:19.415Z,45.56
2022-08-30T22:01:47.560Z,46.07
2022-08-30T22:04:15.296Z,45.84
2022-08-30T22:06:48.274Z,45.55
2022-08-30T22:09:16.529Z,45.69
2022-08-30T22:11:44.637Z,45.67
2022-08-30T22:14:12.467Z,45.57
2022-08-30T22:16:40.542Z,45.80
2022-08-30T22:19:08.136Z,45.66
2022-08-30T22:21:37.078Z,46.01
2022-08-30T22:24:05.259Z,45.86
2022-08-30T22:26:35.584Z,45.89
2022-08-30T22:29:04.601Z,46.06
2022-08-30T22:31:35.891Z,45.88
2022-08-30T22:34:10.157Z,45.87
2022-08-30T22:36:38.326Z,45.82
2022-08-30T22:39:07.131Z,46.09
2022-08-30T22:41:34.889Z,45.76
2022-08-30T22:44:02.636Z,46.04
2022-08-30T22:46:34.537Z,46.01
2022-08-30T22:49:07.123Z,45.98
2022-08-30T22:51:37.610Z,46.32
2022-08-30T22:54:06.267Z,46.25
2022-08-30T22:56:34.705Z,46.37
2022-08-30T22:59:02.219Z,46.44
2022-08-30T23:01:33.228Z,46.25
2022-08-30T23:04:03.483Z,46.30
2022-08-30T23:06:30.716Z,46.25
2022-08-30T23:08:57.833Z,46.58
2022-08-30T23:11:24.570Z,46.32
2022-08-30T23:13:51.734Z,46.18
2022-08-30T23:16:22.549Z,46.52
2022-08-30T23:18:49.637Z,46.61
2022-08-30T23:21:20.354Z,46.78
2022-08-30T23:24:10.284Z,46.53
2022-08-30T23:26:56.341Z,46.84
2022-08-30T23:29:42.182Z,46.76
2022-08-30T23:32:27.890Z,46.72
2022-08-30T23:35:13.445Z,46.30
2022-08-30T23:37:59.440Z,46.37
2022-08-30T23:40:45.092Z,46.44
2022-08-30T23:43:33.527Z,46.28
2022-08-30T23:46:19.724Z,47.00
2022-08-30T23:49:07.100Z,48.29
2022-08-30T23:51:55.859Z,48.84
2022-08-30T23:54:41.835Z,50.19
2022-08-30T23:57:27.346Z,50.43
